createdAt,value
2023-04-18T00:01:27.544Z,9.89
2023-04-18T00:03:55.319Z,9.83
2023-04-18T00:06:23.136Z,9.60
2023-04-18T00:08:50.998Z,9.67
2023-04-18T00:11:21.017Z,9.67
2023-04-18T00:13:48.888Z,9.54
2023-04-18T00:16:16.839Z,9.60
2023-04-18T00:18:44.665Z,9.52
2023-04-18T00:21:13.316Z,9.57
2023-04-18T00:23:41.672Z,9.36
2023-04-18T00:26:09.496Z,9.32
2023-04-18T00:28:38.835Z,9.05
2023-04-18T00:31:06.595Z,9.03
2023-04-18T00:33:35.133Z,8.79
2023-04-18T00:36:03.350Z,9.05
2023-04-18T00:38:31.066Z,9.15
2023-04-18T00:40:58.763Z,9.05
2023-04-18T00:43:26.775Z,9.06
2023-04-18T00:45:56.957Z,9.10
2023-04-18T00:48:25.233Z,8.95
2023-04-18T00:50:55.335Z,8.87
2023-04-18T00:53:23.237Z,8.48
2023-04-18T00:55:51.388Z,8.39
2023-04-18T00:58:19.657Z,8.54
2023-04-18T01:00:47.602Z,8.49
2023-04-18T01:03:18.194Z,8.39
2023-04-18T01:05:47.113Z,8.40
2023-04-18T01:08:14.859Z,8.59
2023-04-18T01:10:42.727Z,8.67
2023-04-18T01:13:12.092Z,8.78
2023-04-18T01:15:42.294Z,8.78
2023-04-18T01:18:10.534Z,8.64
2023-04-18T01:20:42.568Z,8.77
2023-04-18T01:23:11.158Z,8.73
2023-04-18T01:25:40.242Z,8.73
2023-04-18T01:28:08.297Z,8.47
2023-04-18T01:30:36.003Z,8.60
2023-04-18T01:33:04.882Z,8.53
2023-04-18T01:35:32.827Z,8.24
2023-04-18T01:38:01.119Z,8.25
2023-04-18T01:40:29.842Z,8.13
2023-04-18T01:42:58.838Z,8.01
2023-04-18T01:45:26.706Z,7.78
2023-04-18T01:47:54.336Z,7.64
2023-04-18T01:50:22.163Z,7.70
2023-04-18T01:52:49.778Z,7.85
2023-04-18T01:55:17.508Z,7.92
2023-04-18T01:57:45.266Z,8.12
2023-04-18T02:00:15.212Z,8.11
2023-04-18T02:02:43.099Z,7.92
2023-04-18T02:05:10.964Z,7.94
2023-04-18T02:07:40.099Z,8.10
2023-04-18T02:10:09.319Z,8.00
2023-04-18T02:12:36.967Z,7.92
2023-04-18T02:15:05.212Z,7.79
2023-04-18T02:17:37.829Z,7.87
2023-04-18T02:20:08.232Z,7.85
2023-04-18T02:22:37.551Z,7.87
2023-04-18T02:25:05.734Z,7.74
2023-04-18T02:27:33.408Z,7.79
2023-04-18T02:30:01.029Z,7.83
2023-04-18T02:32:28.765Z,7.78
2023-04-18T02:34:57.727Z,7.80
2023-04-18T02:37:25.377Z,7.67
2023-04-18T02:39:53.018Z,7.80
2023-04-18T02:42:20.844Z,7.70
2023-04-18T02:44:49.086Z,7.83
2023-04-18T02:47:17.161Z,7.90
2023-04-18T02:49:47.276Z,7.85
2023-04-18T02:52:16.419Z,7.84
2023-04-18T02:54:44.144Z,7.76
2023-04-18T02:57:17.987Z,7.98
2023-04-18T02:59:54.642Z,8.15
2023-04-18T03:02:41.191Z,7.97
2023-04-18T03:05:23.570Z,8.08
2023-04-18T03:07:53.754Z,7.97
2023-04-18T03:10:21.387Z,7.97
2023-04-18T03:12:49.000Z,7.93
2023-04-18T03:15:18.681Z,8.02
2023-04-18T03:17:47.425Z,7.91
2023-04-18T03:20:16.591Z,7.70
2023-04-18T03:22:44.410Z,7.79
2023-04-18T03:25:14.629Z,7.68
2023-04-18T03:27:50.432Z,7.73
2023-04-18T03:30:22.056Z,7.56
2023-04-18T03:32:53.904Z,7.43
2023-04-18T03:35:21.552Z,7.39
2023-04-18T03:37:49.901Z,7.51
2023-04-18T03:40:27.867Z,7.37
2023-04-18T03:43:00.700Z,7.51
2023-04-18T03:45:28.423Z,7.63
2023-04-18T03:47:56.963Z,7.53
2023-04-18T03:50:25.639Z,7.61
2023-04-18T03:52:55.432Z,7.60
2023-04-18T03:55:23.058Z,7.70
2023-04-18T03:57:52.936Z,7.70
2023-04-18T04:00:27.315Z,7.64
2023-04-18T04:03:07.626Z,7.65
2023-04-18T04:05:35.737Z,7.63
2023-04-18T04:08:03.406Z,7.54
2023-04-18T04:10:31.275Z,7.47
2023-04-18T04:13:00.546Z,7.46
2023-04-18T04:15:29.352Z,7.36
2023-04-18T04:18:03.210Z,7.64
2023-04-18T04:20:32.165Z,7.79
2023-04-18T04:23:07.926Z,7.83
2023-04-18T04:25:38.624Z,7.60
2023-04-18T04:28:15.960Z,7.51
2023-04-18T04:30:53.204Z,7.66
2023-04-18T04:33:25.015Z,7.51
2023-04-18T04:35:55.674Z,7.51
2023-04-18T04:38:24.006Z,7.52
2023-04-18T04:40:53.068Z,7.53
2023-04-18T04:43:22.048Z,7.70
2023-04-18T04:45:52.599Z,7.62
2023-04-18T04:48:24.802Z,7.59
2023-04-18T04:50:55.266Z,7.77
2023-04-18T04:53:23.470Z,7.63
2023-04-18T04:55:52.112Z,7.69
2023-04-18T04:58:19.914Z,7.86
2023-04-18T05:01:04.020Z,7.96
2023-04-18T05:03:32.912Z,7.93
2023-04-18T05:06:01.164Z,7.77
2023-04-18T05:08:28.802Z,7.84
2023-04-18T05:10:56.478Z,8.01
2023-04-18T05:13:24.058Z,7.80
2023-04-18T05:15:52.518Z,8.12
2023-04-18T05:18:21.676Z,8.34
2023-04-18T05:20:49.329Z,8.42
2023-04-18T05:23:17.066Z,8.47
2023-04-18T05:25:44.740Z,8.48
2023-04-18T05:28:12.356Z,8.45
2023-04-18T05:30:40.838Z,8.73
2023-04-18T05:33:08.563Z,8.84
2023-04-18T05:35:37.661Z,8.99
2023-04-18T05:38:05.239Z,8.82
2023-04-18T05:40:32.863Z,8.85
2023-04-18T05:43:01.321Z,8.90
2023-04-18T05:45:29.100Z,8.81
2023-04-18T05:47:57.145Z,8.90
2023-04-18T05:50:24.869Z,8.82
2023-04-18T05:52:53.814Z,8.94
2023-04-18T05:55:21.626Z,9.08
2023-04-18T05:57:49.233Z,8.83
2023-04-18T06:00:18.019Z,8.83
2023-04-18T06:02:45.804Z,8.83
2023-04-18T06:05:14.153Z,8.90
2023-04-18T06:07:41.990Z,8.94
2023-04-18T06:10:13.410Z,9.06
2023-04-18T06:12:41.500Z,9.14
2023-04-18T06:15:10.521Z,9.21
2023-04-18T06:17:38.276Z,9.08
2023-04-18T06:20:06.765Z,9.20
2023-04-18T06:22:34.819Z,9.11
2023-04-18T06:25:02.617Z,8.98
2023-04-18T06:27:32.163Z,9.02
2023-04-18T06:29:59.921Z,9.24
2023-04-18T06:32:27.584Z,9.12
2023-04-18T06:34:55.345Z,9.16
2023-04-18T06:37:23.417Z,9.34
2023-04-18T06:39:51.005Z,9.35
2023-04-18T06:42:20.207Z,9.21
2023-04-18T06:44:50.713Z,9.32
2023-04-18T06:47:18.743Z,9.18
2023-04-18T06:49:46.343Z,9.28
2023-04-18T06:52:13.968Z,9.47
2023-04-18T06:54:41.697Z,9.46
2023-04-18T06:57:09.875Z,9.50
2023-04-18T06:59:37.553Z,9.50
2023-04-18T07:02:06.492Z,9.52
2023-04-18T07:04:34.161Z,9.59
2023-04-18T07:07:03.697Z,9.77
2023-04-18T07:09:31.317Z,9.63
2023-04-18T07:11:59.065Z,9.42
2023-04-18T07:14:27.252Z,9.50
2023-04-18T07:16:55.017Z,9.75
2023-04-18T07:19:24.136Z,9.84
2023-04-18T07:21:51.761Z,9.93
2023-04-18T07:24:19.351Z,9.90
2023-04-18T07:26:47.032Z,10.09
2023-04-18T07:29:14.624Z,9.78
2023-04-18T07:31:42.261Z,9.89
2023-04-18T07:34:10.007Z,10.26
2023-04-18T07:36:39.036Z,9.92
2023-04-18T07:39:06.824Z,10.29
2023-04-18T07:41:34.774Z,10.73
2023-04-18T07:44:02.742Z,10.61
2023-04-18T07:46:32.234Z,10.96
2023-04-18T07:48:59.992Z,11.05
2023-04-18T07:51:31.318Z,10.80
2023-04-18T07:54:00.643Z,11.08
2023-04-18T07:56:28.939Z,11.20
2023-04-18T07:58:56.643Z,10.95
2023-04-18T08:01:26.990Z,11.13
2023-04-18T08:03:56.570Z,10.97
2023-04-18T08:06:24.369Z,11.56
2023-04-18T08:08:52.392Z,11.79
2023-04-18T08:11:21.566Z,11.83
2023-04-18T08:13:49.200Z,11.86
2023-04-18T08:16:17.661Z,12.00
2023-04-18T08:18:45.336Z,11.72
2023-04-18T08:21:13.148Z,11.96
2023-04-18T08:23:41.238Z,12.08
2023-04-18T08:26:08.853Z,12.22
2023-04-18T08:28:37.882Z,11.93
2023-04-18T08:31:06.320Z,11.77
2023-04-18T08:33:33.989Z,11.54
2023-04-18T08:36:01.629Z,11.34
2023-04-18T08:38:29.470Z,11.42
2023-04-18T08:40:57.144Z,11.75
2023-04-18T08:43:25.317Z,11.94
2023-04-18T08:45:59.264Z,12.32
2023-04-18T08:48:27.845Z,12.69
2023-04-18T08:50:58.350Z,12.67
2023-04-18T08:53:27.313Z,13.11
2023-04-18T08:55:56.155Z,12.82
2023-04-18T08:58:25.501Z,12.98
2023-04-18T09:00:55.279Z,12.79
2023-04-18T09:03:37.491Z,12.80
2023-04-18T09:06:11.430Z,13.17
2023-04-18T09:08:39.356Z,13.32
2023-04-18T09:11:28.620Z,12.59
2023-04-18T09:13:58.736Z,12.92
2023-04-18T09:16:29.137Z,12.79
2023-04-18T09:19:11.567Z,12.95
2023-04-18T09:21:40.327Z,12.89
2023-04-18T09:24:20.672Z,12.65
2023-04-18T09:26:49.845Z,12.54
2023-04-18T09:29:18.461Z,12.63
2023-04-18T09:31:59.757Z,12.60
2023-04-18T09:34:27.867Z,12.56
2023-04-18T09:37:09.497Z,12.31
2023-04-18T09:39:38.576Z,12.18
2023-04-18T09:42:06.950Z,12.06
2023-04-18T09:44:34.783Z,12.43
2023-04-18T09:47:03.756Z,12.73
2023-04-18T09:49:31.434Z,12.73
2023-04-18T09:52:00.463Z,13.07
2023-04-18T09:54:31.983Z,13.46
2023-04-18T09:57:01.046Z,13.48
2023-04-18T09:59:37.835Z,13.44
2023-04-18T10:02:16.169Z,13.46
2023-04-18T10:04:46.231Z,13.48
2023-04-18T10:07:15.901Z,13.92
2023-04-18T10:09:46.558Z,13.81
2023-04-18T10:12:15.020Z,13.52
2023-04-18T10:14:43.822Z,13.47
2023-04-18T10:17:14.953Z,13.55
2023-04-18T10:19:45.929Z,13.92
2023-04-18T10:22:14.208Z,14.05
2023-04-18T10:24:53.049Z,14.26
2023-04-18T10:27:56.380Z,14.53
2023-04-18T10:30:57.186Z,14.43
2023-04-18T10:33:33.608Z,14.93
2023-04-18T10:36:06.032Z,15.27
2023-04-18T10:38:34.957Z,15.33
2023-04-18T10:41:22.234Z,15.04
2023-04-18T10:44:11.383Z,14.91
2023-04-18T10:46:40.118Z,14.70
2023-04-18T10:49:16.398Z,14.92
2023-04-18T10:51:45.202Z,14.80
2023-04-18T10:54:18.140Z,14.50
2023-04-18T10:56:53.777Z,15.09
2023-04-18T10:59:23.643Z,15.25
2023-04-18T11:01:56.702Z,15.80
2023-04-18T11:04:26.313Z,16.15
2023-04-18T11:06:57.154Z,15.97
2023-04-18T11:09:25.915Z,16.18
2023-04-18T11:12:04.564Z,15.66
2023-04-18T11:14:40.683Z,15.98
2023-04-18T11:17:22.119Z,16.73
2023-04-18T11:19:51.573Z,17.05
2023-04-18T11:22:19.317Z,16.63
2023-04-18T11:24:47.017Z,16.07
2023-04-18T11:27:14.988Z,15.77
2023-04-18T11:29:42.746Z,16.12
2023-04-18T11:32:11.103Z,16.35
2023-04-18T11:34:38.746Z,16.63
2023-04-18T11:37:08.572Z,17.10
2023-04-18T11:39:37.066Z,16.80
2023-04-18T11:42:05.706Z,16.64
2023-04-18T11:44:36.205Z,16.79
2023-04-18T11:47:04.121Z,16.45
2023-04-18T11:49:33.184Z,16.05
2023-04-18T11:52:01.286Z,16.30
2023-04-18T11:54:43.988Z,15.85
2023-04-18T11:57:25.885Z,16.08
2023-04-18T11:59:54.830Z,16.17
2023-04-18T12:02:23.669Z,15.58
2023-04-18T12:04:56.945Z,16.02
2023-04-18T12:07:32.776Z,15.96
2023-04-18T12:10:01.860Z,16.36
2023-04-18T12:12:29.578Z,16.41
2023-04-18T12:15:05.428Z,15.78
2023-04-18T12:17:33.421Z,16.28
2023-04-18T12:20:05.984Z,16.51
2023-04-18T12:22:41.866Z,16.45
2023-04-18T12:25:22.829Z,16.45
2023-04-18T12:27:58.387Z,16.21
2023-04-18T12:30:28.115Z,16.58
2023-04-18T12:32:57.954Z,16.34
2023-04-18T12:35:26.360Z,16.52
2023-04-18T12:37:55.425Z,16.45
2023-04-18T12:40:26.362Z,15.82
2023-04-18T12:42:55.375Z,16.32
2023-04-18T12:45:24.000Z,17.03
2023-04-18T12:47:53.179Z,17.66
2023-04-18T12:50:22.812Z,17.71
2023-04-18T12:52:54.555Z,17.18
2023-04-18T12:55:24.468Z,16.51
2023-04-18T12:57:54.283Z,16.13
2023-04-18T13:00:23.322Z,16.32
2023-04-18T13:02:52.351Z,16.95
2023-04-18T13:05:21.580Z,16.72
2023-04-18T13:07:49.791Z,16.89
2023-04-18T13:10:19.441Z,17.00
2023-04-18T13:12:50.043Z,17.02
2023-04-18T13:15:18.223Z,16.82
2023-04-18T13:17:45.899Z,16.86
2023-04-18T13:20:13.843Z,16.60
2023-04-18T13:22:42.696Z,16.11
2023-04-18T13:25:11.574Z,16.45
2023-04-18T13:27:41.712Z,17.01
2023-04-18T13:30:11.930Z,16.72
2023-04-18T13:32:40.530Z,16.21
2023-04-18T13:35:09.654Z,16.65
2023-04-18T13:37:37.799Z,16.10
2023-04-18T13:40:07.028Z,16.15
2023-04-18T13:42:35.071Z,16.30
2023-04-18T13:45:03.001Z,16.57
2023-04-18T13:47:31.955Z,16.86
2023-04-18T13:49:59.591Z,17.20
2023-04-18T13:52:27.154Z,16.98
2023-04-18T13:54:54.836Z,17.24
2023-04-18T13:57:23.433Z,17.35
2023-04-18T13:59:51.233Z,17.51
2023-04-18T14:02:18.896Z,17.65
2023-04-18T14:04:48.014Z,17.54
2023-04-18T14:07:16.457Z,17.47
2023-04-18T14:09:44.124Z,17.59
2023-04-18T14:12:11.730Z,17.98
2023-04-18T14:14:39.380Z,18.25
2023-04-18T14:17:07.407Z,18.79
2023-04-18T14:19:35.694Z,18.06
2023-04-18T14:22:04.618Z,17.75
2023-04-18T14:24:32.239Z,18.00
2023-04-18T14:26:59.891Z,17.73
2023-04-18T14:29:27.496Z,17.08
2023-04-18T14:31:55.748Z,16.98
2023-04-18T14:34:23.334Z,17.15
2023-04-18T14:36:50.951Z,16.72
2023-04-18T14:39:19.873Z,16.52
2023-04-18T14:41:47.516Z,16.62
2023-04-18T14:44:15.364Z,16.84
2023-04-18T14:46:43.393Z,17.44
2023-04-18T14:49:11.382Z,17.55
2023-04-18T14:51:39.012Z,18.00
2023-04-18T14:54:06.781Z,17.85
2023-04-18T14:56:35.984Z,17.50
2023-04-18T14:59:03.790Z,17.13
2023-04-18T15:01:31.461Z,17.23
2023-04-18T15:03:59.362Z,17.20
2023-04-18T15:06:28.338Z,17.23
2023-04-18T15:08:57.152Z,17.72
2023-04-18T15:11:24.896Z,17.59
2023-04-18T15:13:53.918Z,17.77
2023-04-18T15:16:21.675Z,18.12
2023-04-18T15:18:49.271Z,18.29
2023-04-18T15:21:16.935Z,17.66
2023-04-18T15:23:44.577Z,17.51
2023-04-18T15:26:12.343Z,16.97
2023-04-18T15:28:40.013Z,16.88
2023-04-18T15:31:09.566Z,16.33
2023-04-18T15:33:37.289Z,16.73
2023-04-18T15:36:05.505Z,17.03
2023-04-18T15:38:33.350Z,17.35
2023-04-18T15:41:01.022Z,17.16
2023-04-18T15:43:28.646Z,16.96
2023-04-18T15:45:56.324Z,17.16
2023-04-18T15:48:25.299Z,17.22
2023-04-18T15:50:53.003Z,17.09
2023-04-18T15:53:20.791Z,17.02
2023-04-18T15:55:48.429Z,16.80
2023-04-18T15:58:16.083Z,16.81
2023-04-18T16:00:44.314Z,16.66
2023-04-18T16:03:12.218Z,16.61
2023-04-18T16:05:41.390Z,16.38
2023-04-18T16:08:09.408Z,16.44
2023-04-18T16:10:37.762Z,16.27
2023-04-18T16:13:06.627Z,16.02
2023-04-18T16:15:35.424Z,16.05
2023-04-18T16:18:03.340Z,16.15
2023-04-18T16:20:33.131Z,15.60
2023-04-18T16:23:02.104Z,15.51
2023-04-18T16:25:29.733Z,15.38
2023-04-18T16:27:57.343Z,15.30
2023-04-18T16:30:24.964Z,15.37
2023-04-18T16:32:52.734Z,15.25
2023-04-18T16:35:20.560Z,15.15
2023-04-18T16:37:48.461Z,15.27
2023-04-18T16:40:17.514Z,15.39
2023-04-18T16:42:45.266Z,15.51
2023-04-18T16:45:13.155Z,15.88
2023-04-18T16:47:40.900Z,16.13
2023-04-18T16:50:09.603Z,15.80
2023-04-18T16:52:37.217Z,15.52
2023-04-18T16:55:05.513Z,15.63
2023-04-18T16:57:34.532Z,15.45
2023-04-18T17:00:02.753Z,15.58
2023-04-18T17:02:30.565Z,15.57
2023-04-18T17:04:58.429Z,15.58
2023-04-18T17:07:26.187Z,15.32
2023-04-18T17:09:53.947Z,15.35
2023-04-18T17:12:22.135Z,15.42
2023-04-18T17:14:51.118Z,15.10
2023-04-18T17:17:18.723Z,14.81
2023-04-18T17:19:46.711Z,14.76
2023-04-18T17:22:14.337Z,14.79
2023-04-18T17:24:41.891Z,14.73
2023-04-18T17:27:09.570Z,14.74
2023-04-18T17:29:37.235Z,14.68
2023-04-18T17:32:06.793Z,14.66
2023-04-18T17:34:34.574Z,14.48
2023-04-18T17:37:02.928Z,14.47
2023-04-18T17:39:32.093Z,14.48
2023-04-18T17:42:00.234Z,14.47
2023-04-18T17:44:27.833Z,14.28
2023-04-18T17:46:55.485Z,14.29
2023-04-18T17:49:24.418Z,14.03
2023-04-18T17:51:52.055Z,14.06
2023-04-18T17:54:19.700Z,14.17
2023-04-18T17:56:47.344Z,13.86
2023-04-18T17:59:15.349Z,13.81
2023-04-18T18:01:43.276Z,13.62
2023-04-18T18:04:11.029Z,13.10
2023-04-18T18:06:40.630Z,13.34
2023-04-18T18:09:08.308Z,13.26
2023-04-18T18:11:36.390Z,13.12
2023-04-18T18:14:04.340Z,12.99
2023-04-18T18:16:32.282Z,13.10
2023-04-18T18:19:00.350Z,13.13
2023-04-18T18:21:28.695Z,13.18
2023-04-18T18:23:57.747Z,12.87
2023-04-18T18:26:26.414Z,12.89
2023-04-18T18:28:54.322Z,13.06
2023-04-18T18:31:24.608Z,12.88
2023-04-18T18:33:52.307Z,12.90
2023-04-18T18:36:19.961Z,12.75
2023-04-18T18:38:47.687Z,12.71
2023-04-18T18:41:16.737Z,12.60
2023-04-18T18:43:44.407Z,12.55
2023-04-18T18:46:12.112Z,12.63
2023-04-18T18:48:40.182Z,12.62
2023-04-18T18:51:08.311Z,12.45
2023-04-18T18:53:37.717Z,12.50
2023-04-18T18:56:08.537Z,12.49
2023-04-18T18:58:38.250Z,12.39
2023-04-18T19:01:06.607Z,12.45
2023-04-18T19:03:34.780Z,12.44
2023-04-18T19:06:03.806Z,12.35
2023-04-18T19:08:31.557Z,12.40
2023-04-18T19:10:59.265Z,12.39
2023-04-18T19:13:27.278Z,12.43
2023-04-18T19:15:56.359Z,12.53
2023-04-18T19:18:24.086Z,12.30
2023-04-18T19:20:51.776Z,12.37
2023-04-18T19:23:19.442Z,12.45
2023-04-18T19:25:47.203Z,12.37
2023-04-18T19:28:16.132Z,12.34
2023-04-18T19:30:43.837Z,12.28
2023-04-18T19:33:13.899Z,12.41
2023-04-18T19:35:42.989Z,12.27
2023-04-18T19:38:10.592Z,12.35
2023-04-18T19:40:38.572Z,12.25
2023-04-18T19:43:06.180Z,12.12
2023-04-18T19:45:33.961Z,11.87
2023-04-18T19:48:01.667Z,12.11
2023-04-18T19:50:31.217Z,11.96
2023-04-18T19:52:58.843Z,11.92
2023-04-18T19:55:26.416Z,11.87
2023-04-18T19:57:55.601Z,11.85
2023-04-18T20:00:23.326Z,11.78
2023-04-18T20:02:51.168Z,11.74
2023-04-18T20:05:19.293Z,11.80
2023-04-18T20:07:48.289Z,11.80
2023-04-18T20:10:15.914Z,11.83
2023-04-18T20:12:43.568Z,11.75
2023-04-18T20:15:12.212Z,11.70
2023-04-18T20:17:39.898Z,11.71
2023-04-18T20:20:10.430Z,11.73
2023-04-18T20:22:40.181Z,11.72
2023-04-18T20:25:09.829Z,11.66
2023-04-18T20:27:37.549Z,11.60
2023-04-18T20:30:06.679Z,11.58
2023-04-18T20:32:34.518Z,11.42
2023-04-18T20:35:02.863Z,11.49
2023-04-18T20:37:30.522Z,11.31
2023-04-18T20:39:58.649Z,11.43
2023-04-18T20:42:27.639Z,11.39
2023-04-18T20:44:55.222Z,11.37
2023-04-18T20:47:22.873Z,11.52
2023-04-18T20:49:50.667Z,11.33
2023-04-18T20:52:18.594Z,11.44
2023-04-18T20:54:46.242Z,11.56
2023-04-18T20:57:13.904Z,11.38
2023-04-18T20:59:42.937Z,11.39
2023-04-18T21:02:10.636Z,11.42
2023-04-18T21:04:38.605Z,11.37
2023-04-18T21:07:06.274Z,11.44
2023-04-18T21:09:36.881Z,11.48
2023-04-18T21:12:05.349Z,11.53
2023-04-18T21:14:33.073Z,11.54
2023-04-18T21:17:02.206Z,11.47
2023-04-18T21:19:29.831Z,11.32
2023-04-18T21:21:57.597Z,11.37
2023-04-18T21:24:25.272Z,11.17
2023-04-18T21:26:52.858Z,11.25
2023-04-18T21:29:21.941Z,11.40
2023-04-18T21:31:50.170Z,11.43
2023-04-18T21:34:19.123Z,11.32
2023-04-18T21:36:46.743Z,11.34
2023-04-18T21:39:14.394Z,11.11
2023-04-18T21:41:42.152Z,11.19
2023-04-18T21:44:10.475Z,10.92
2023-04-18T21:46:38.328Z,10.99
2023-04-18T21:49:05.909Z,10.94
2023-04-18T21:51:34.914Z,10.81
2023-04-18T21:54:02.751Z,10.81
2023-04-18T21:56:30.680Z,10.72
2023-04-18T21:58:58.289Z,10.78
2023-04-18T22:01:26.044Z,10.71
2023-04-18T22:03:53.965Z,10.63
2023-04-18T22:06:22.998Z,10.67
2023-04-18T22:08:52.109Z,10.59
2023-04-18T22:11:20.097Z,10.57
2023-04-18T22:13:47.675Z,10.52
2023-04-18T22:16:15.695Z,10.54
2023-04-18T22:18:43.360Z,10.33
2023-04-18T22:21:11.285Z,10.48
2023-04-18T22:23:38.885Z,10.37
2023-04-18T22:26:07.891Z,10.36
2023-04-18T22:28:35.540Z,10.40
2023-04-18T22:31:03.276Z,10.36
2023-04-18T22:33:30.974Z,10.32
2023-04-18T22:35:58.589Z,10.33
2023-04-18T22:38:26.242Z,10.41
2023-04-18T22:40:53.896Z,10.40
2023-04-18T22:43:24.302Z,10.43
2023-04-18T22:45:52.409Z,10.13
2023-04-18T22:48:20.110Z,10.49
2023-04-18T22:50:47.758Z,10.48
2023-04-18T22:53:15.464Z,10.54
2023-04-18T22:55:44.553Z,10.57
2023-04-18T22:58:13.361Z,10.60
2023-04-18T23:00:42.311Z,10.62
2023-04-18T23:03:10.196Z,10.68
2023-04-18T23:05:38.068Z,10.82
2023-04-18T23:08:06.827Z,10.35
2023-04-18T23:10:34.983Z,10.75
2023-04-18T23:13:02.636Z,10.66
2023-04-18T23:15:30.498Z,10.71
2023-04-18T23:17:59.529Z,10.70
2023-04-18T23:20:27.258Z,10.74
2023-04-18T23:22:55.851Z,10.71
2023-04-18T23:25:23.665Z,10.63
2023-04-18T23:27:51.514Z,10.55
2023-04-18T23:30:19.134Z,10.60
2023-04-18T23:32:46.784Z,10.60
2023-04-18T23:35:15.828Z,10.67
2023-04-18T23:37:43.555Z,10.56
2023-04-18T23:40:11.263Z,10.66
2023-04-18T23:42:38.838Z,10.68
2023-04-18T23:45:07.249Z,10.62
2023-04-18T23:47:35.010Z,10.65
2023-04-18T23:50:02.940Z,10.49
2023-04-18T23:52:31.880Z,10.81
2023-04-18T23:55:00.467Z,10.70
2023-04-18T23:57:28.172Z,10.63
2023-04-18T23:59:55.908Z,10.84
